Time;durP1;ratioP1;P1;durP2;ratioP2;P2;SDS_P1;SDS_P2;PMS_P1;PMS_P2;Temp;Humidity;BMP_temperature;BMP_pressure;BME280_temperature;BME280_humidity;BME280_pressure;Samples;Min_cycle;Max_cycle;Signal;HPM_P1;HPM_P2
2021/11/01 00:02:03;;;;;;;2.75;2.55;;;;;;;;;;4938671;29;20309;-69
2021/11/01 00:04:28;;;;;;;2.47;2.25;;;;;;;;;;4938442;29;20282;-69
2021/11/01 00:06:56;;;;;;;3.13;2.50;;;;;;;;;;4961736;28;20221;-70
2021/11/01 00:09:23;;;;;;;2.40;2.20;;;;;;;;;;4967034;28;20289;-71
2021/11/01 00:11:49;;;;;;;4.28;2.30;;;;;;;;;;4974854;28;20835;-70
2021/11/01 00:14:16;;;;;;;3.97;2.10;;;;;;;;;;4925208;28;20234;-70
2021/11/01 00:16:44;;;;;;;2.35;2.15;;;;;;;;;;4957783;28;20253;-70
2021/11/01 00:19:09;;;;;;;4.75;2.50;;;;;;;;;;4953658;28;20238;-70
2021/11/01 00:21:38;;;;;;;4.28;1.70;;;;;;;;;;4955518;28;20228;-71
2021/11/01 00:24:04;;;;;;;2.03;1.35;;;;;;;;;;4949628;28;20288;-72
2021/11/01 00:26:29;;;;;;;1.25;1.15;;;;;;;;;;4957033;28;20225;-70
2021/11/01 00:28:57;;;;;;;1.00;0.82;;;;;;;;;;4957170;28;20254;-70
2021/11/01 00:31:23;;;;;;;1.95;0.90;;;;;;;;;;4974211;28;20229;-72
2021/11/01 00:33:49;;;;;;;2.00;1.08;;;;;;;;;;4957403;28;20600;-71
2021/11/01 00:36:17;;;;;;;1.95;0.80;;;;;;;;;;4924030;28;20230;-71
2021/11/01 00:38:42;;;;;;;2.45;0.80;;;;;;;;;;4949336;28;20261;-73
2021/11/01 00:41:10;;;;;;;2.10;0.88;;;;;;;;;;4940715;28;20230;-71
2021/11/01 00:43:37;;;;;;;2.90;1.00;;;;;;;;;;4941147;28;20234;-71
2021/11/01 00:46:05;;;;;;;1.80;0.77;;;;;;;;;;4940646;28;20273;-71
2021/11/01 00:48:31;;;;;;;1.60;0.88;;;;;;;;;;4956605;28;20229;-70
2021/11/01 00:50:58;;;;;;;3.78;0.90;;;;;;;;;;4957327;28;20218;-71
2021/11/01 00:53:29;;;;;;;3.75;1.10;;;;;;;;;;4956594;28;20233;-71
2021/11/01 00:55:58;;;;;;;1.50;0.80;;;;;;;;;;4926306;28;20279;-71
2021/11/01 00:58:25;;;;;;;4.63;1.17;;;;;;;;;;4938111;28;20765;-70
2021/11/01 01:00:54;;;;;;;3.17;1.20;;;;;;;;;;4953639;29;20214;-71
2021/11/01 01:03:19;;;;;;;3.22;1.08;;;;;;;;;;4937552;28;20223;-71
2021/11/01 01:05:46;;;;;;;3.42;1.17;;;;;;;;;;4940441;28;20248;-71
2021/11/01 01:08:13;;;;;;;3.47;1.30;;;;;;;;;;4929715;28;20298;-71
2021/11/01 01:10:39;;;;;;;4.75;1.27;;;;;;;;;;4954873;28;20695;-71
2021/11/01 01:13:05;;;;;;;1.50;1.10;;;;;;;;;;4952640;28;20222;-72
2021/11/01 01:15:37;;;;;;;4.53;1.08;;;;;;;;;;4971033;28;20222;-71
2021/11/01 01:18:08;;;;;;;2.85;1.17;;;;;;;;;;4956954;28;20218;-71
2021/11/01 01:20:36;;;;;;;4.00;1.00;;;;;;;;;;4940730;29;20226;-70
2021/11/01 01:23:01;;;;;;;3.90;1.10;;;;;;;;;;4936914;29;20231;-71
2021/11/01 01:25:37;;;;;;;4.50;1.40;;;;;;;;;;4935133;28;20228;-72
2021/11/01 01:28:07;;;;;;;8.60;2.10;;;;;;;;;;4938326;28;20228;-72
2021/11/01 01:30:33;;;;;;;5.37;1.73;;;;;;;;;;4939978;28;20226;-71
2021/11/01 01:33:01;;;;;;;8.75;2.08;;;;;;;;;;4972304;28;20214;-73
2021/11/01 01:35:30;;;;;;;8.83;2.03;;;;;;;;;;4939142;28;20238;-70
2021/11/01 01:37:56;;;;;;;8.90;2.27;;;;;;;;;;4924446;28;20314;-71
2021/11/01 01:40:27;;;;;;;14.20;2.70;;;;;;;;;;4942752;29;20676;-72
2021/11/01 01:42:53;;;;;;;9.70;2.77;;;;;;;;;;4921332;29;20245;-71
2021/11/01 01:45:21;;;;;;;10.57;2.57;;;;;;;;;;4931611;28;20230;-71
2021/11/01 01:47:53;;;;;;;10.87;2.63;;;;;;;;;;4956133;28;20236;-71
2021/11/01 01:50:21;;;;;;;11.73;2.80;;;;;;;;;;4955882;28;20309;-70
2021/11/01 01:52:49;;;;;;;9.53;2.40;;;;;;;;;;4941626;28;20218;-70
2021/11/01 01:55:15;;;;;;;9.17;2.33;;;;;;;;;;4939013;28;20232;-70
2021/11/01 01:57:40;;;;;;;11.52;2.60;;;;;;;;;;4955453;28;20301;-70
2021/11/01 02:00:26;;;;;;;12.30;2.90;;;;;;;;;;4924374;28;20218;-70
2021/11/01 02:02:52;;;;;;;11.47;2.70;;;;;;;;;;4972836;28;20230;-71
2021/11/01 02:05:18;;;;;;;10.40;2.37;;;;;;;;;;4938819;28;20242;-71
2021/11/01 02:07:55;;;;;;;13.53;2.80;;;;;;;;;;4966956;28;20258;-71
2021/11/01 02:10:29;;;;;;;10.37;2.60;;;;;;;;;;4949386;28;20226;-70
2021/11/01 02:13:14;;;;;;;12.60;2.67;;;;;;;;;;4972440;28;20612;-70
2021/11/01 02:15:49;;;;;;;11.97;2.63;;;;;;;;;;4939367;28;20229;-71
2021/11/01 02:18:17;;;;;;;12.97;2.70;;;;;;;;;;4972056;28;20237;-71
2021/11/01 02:21:02;;;;;;;8.50;2.63;;;;;;;;;;4955387;28;20687;-71
2021/11/01 02:23:30;;;;;;;9.80;2.60;;;;;;;;;;4970960;28;20229;-70
2021/11/01 02:26:00;;;;;;;14.47;2.77;;;;;;;;;;4954950;28;20260;-70
2021/11/01 02:28:33;;;;;;;7.63;2.47;;;;;;;;;;4954727;28;20226;-70
2021/11/01 02:31:01;;;;;;;11.37;2.97;;;;;;;;;;4955541;28;20233;-70
2021/11/01 02:33:26;;;;;;;9.30;2.30;;;;;;;;;;4938608;28;20701;-70
2021/11/01 02:35:52;;;;;;;12.33;2.43;;;;;;;;;;4954488;28;20300;-70
2021/11/01 02:38:23;;;;;;;10.40;2.30;;;;;;;;;;4954824;28;20231;-70
2021/11/01 02:40:48;;;;;;;11.93;2.57;;;;;;;;;;4931212;28;20226;-70
2021/11/01 02:43:14;;;;;;;11.20;2.53;;;;;;;;;;4963291;28;20247;-71
2021/11/01 02:45:40;;;;;;;11.70;2.70;;;;;;;;;;4913835;29;20293;-71
2021/11/01 02:48:06;;;;;;;9.00;2.40;;;;;;;;;;4926296;29;20695;-71
2021/11/01 02:50:33;;;;;;;11.60;2.70;;;;;;;;;;4929936;28;20225;-72
2021/11/01 02:53:03;;;;;;;9.50;2.47;;;;;;;;;;4960827;28;20214;-71
2021/11/01 02:55:32;;;;;;;10.20;2.50;;;;;;;;;;4960628;28;20218;-71
2021/11/01 02:57:57;;;;;;;11.23;2.70;;;;;;;;;;4944597;28;20225;-71
2021/11/01 03:00:25;;;;;;;7.80;2.17;;;;;;;;;;4957870;28;20214;-71
2021/11/01 03:02:51;;;;;;;14.37;3.10;;;;;;;;;;4938062;29;20231;-71
2021/11/01 03:05:23;;;;;;;10.53;2.50;;;;;;;;;;4918999;28;20243;-71
2021/11/01 03:07:50;;;;;;;12.67;2.70;;;;;;;;;;4947123;28;20226;-71
2021/11/01 03:10:18;;;;;;;11.40;2.73;;;;;;;;;;4936066;29;20317;-71
2021/11/01 03:12:47;;;;;;;10.77;2.33;;;;;;;;;;4938421;28;20690;-71
2021/11/01 03:15:20;;;;;;;13.50;2.87;;;;;;;;;;4922364;28;20301;-70
2021/11/01 03:17:46;;;;;;;12.73;2.80;;;;;;;;;;4924409;28;20619;-72
2021/11/01 03:20:17;;;;;;;10.27;2.23;;;;;;;;;;4938344;28;20233;-71
2021/11/01 03:22:47;;;;;;;10.90;2.63;;;;;;;;;;4939157;28;20312;-70
2021/11/01 03:25:21;;;;;;;9.37;2.60;;;;;;;;;;4922006;28;20226;-71
2021/11/01 03:27:50;;;;;;;9.03;2.50;;;;;;;;;;4936201;29;20614;-71
2021/11/01 03:30:18;;;;;;;9.70;2.33;;;;;;;;;;4934722;28;20462;-71
2021/11/01 03:32:44;;;;;;;15.40;2.87;;;;;;;;;;4953879;28;20221;-70
2021/11/01 03:35:10;;;;;;;8.87;2.70;;;;;;;;;;4937225;28;20230;-71
2021/11/01 03:37:36;;;;;;;16.83;3.13;;;;;;;;;;4945996;28;20300;-71
2021/11/01 03:40:03;;;;;;;18.23;2.93;;;;;;;;;;4950355;28;20256;-71
2021/11/01 03:42:31;;;;;;;9.93;2.83;;;;;;;;;;4938035;28;20226;-71
2021/11/01 03:45:02;;;;;;;13.23;2.80;;;;;;;;;;4937102;28;20566;-71
2021/11/01 03:47:32;;;;;;;13.63;3.00;;;;;;;;;;4939253;28;20226;-72
2021/11/01 03:50:01;;;;;;;14.53;3.17;;;;;;;;;;4938932;28;20232;-72
2021/11/01 03:52:36;;;;;;;10.07;3.33;;;;;;;;;;4938598;28;20306;-70
2021/11/01 03:55:04;;;;;;;13.30;3.37;;;;;;;;;;4970191;28;20221;-71
2021/11/01 03:57:32;;;;;;;10.57;3.03;;;;;;;;;;4934824;29;20238;-71
2021/11/01 03:59:57;;;;;;;11.30;3.10;;;;;;;;;;4934781;29;20219;-71
2021/11/01 04:02:26;;;;;;;13.37;3.50;;;;;;;;;;4943862;28;20222;-70
2021/11/01 04:04:54;;;;;;;11.50;3.40;;;;;;;;;;4953763;28;20226;-71
2021/11/01 04:07:19;;;;;;;10.37;2.90;;;;;;;;;;4966870;28;20245;-71
2021/11/01 04:09:50;;;;;;;9.17;2.90;;;;;;;;;;4948008;28;20222;-71
2021/11/01 04:12:18;;;;;;;11.73;3.43;;;;;;;;;;4958031;28;20978;-71
2021/11/01 04:14:50;;;;;;;11.30;3.47;;;;;;;;;;4938021;28;20226;-70
2021/11/01 04:18:25;;;;;;;12.90;3.50;;;;;;;;;;4939146;28;20218;-70
2021/11/01 04:22:44;;;;;;;13.03;3.53;;;;;;;;;;4935675;28;20247;-71
2021/11/01 04:25:10;;;;;;;12.47;3.93;;;;;;;;;;4920985;28;20656;-72
2021/11/01 04:27:38;;;;;;;10.93;3.60;;;;;;;;;;4974305;28;20226;-72
2021/11/01 04:30:04;;;;;;;12.53;3.43;;;;;;;;;;4937638;28;20715;-71
2021/11/01 04:35:09;;;;;;;12.50;3.60;;;;;;;;;;4969064;28;20308;-72
2021/11/01 04:37:35;;;;;;;8.77;3.30;;;;;;;;;;4967894;28;20233;-71
2021/11/01 04:40:13;;;;;;;13.57;4.00;;;;;;;;;;4934133;28;20233;-71
2021/11/01 04:53:34;;;;;;;16.03;4.53;;;;;;;;;;4959869;28;20234;-71
2021/11/01 04:55:59;;;;;;;11.90;3.90;;;;;;;;;;4956401;28;20711;-70
2021/11/01 04:58:25;;;;;;;12.53;4.13;;;;;;;;;;4924415;28;20233;-71
2021/11/01 05:00:52;;;;;;;11.07;3.93;;;;;;;;;;4956592;28;20226;-72
2021/11/01 05:05:51;;;;;;;9.43;3.93;;;;;;;;;;4964031;28;20229;-70
2021/11/01 05:08:18;;;;;;;12.63;3.90;;;;;;;;;;4952872;28;20234;-70
2021/11/01 05:10:48;;;;;;;11.63;4.10;;;;;;;;;;4951466;28;20215;-71
2021/11/01 05:13:17;;;;;;;15.33;3.80;;;;;;;;;;4939528;28;20217;-70
2021/11/01 05:16:01;;;;;;;13.50;3.93;;;;;;;;;;4936720;29;20639;-69
2021/11/01 05:18:35;;;;;;;14.07;3.90;;;;;;;;;;4943806;28;20269;-70
2021/11/01 05:23:43;;;;;;;11.10;3.70;;;;;;;;;;4963439;28;20231;-70
2021/11/01 05:26:17;;;;;;;13.50;3.80;;;;;;;;;;4951205;29;20230;-69
2021/11/01 05:28:47;;;;;;;14.97;3.60;;;;;;;;;;4931028;28;20250;-71
2021/11/01 05:31:22;;;;;;;11.30;3.40;;;;;;;;;;4956745;28;20712;-70
2021/11/01 05:36:18;;;;;;;14.43;3.70;;;;;;;;;;4947503;28;20241;-69
2021/11/01 05:38:44;;;;;;;12.00;3.60;;;;;;;;;;4939741;28;20218;-69
2021/11/01 05:41:12;;;;;;;13.83;3.73;;;;;;;;;;4970598;28;20696;-69
2021/11/01 05:43:42;;;;;;;10.43;3.20;;;;;;;;;;4951672;28;20230;-69
2021/11/01 05:46:07;;;;;;;13.63;3.30;;;;;;;;;;4939189;28;20226;-70
2021/11/01 05:48:33;;;;;;;17.80;3.90;;;;;;;;;;4950891;28;20226;-71
2021/11/01 05:51:01;;;;;;;12.70;3.67;;;;;;;;;;4936331;29;20221;-69
2021/11/01 05:53:33;;;;;;;10.40;3.20;;;;;;;;;;4952083;28;20600;-69
2021/11/01 05:58:41;;;;;;;11.33;3.30;;;;;;;;;;4956390;28;20250;-69
2021/11/01 06:01:36;;;;;;;10.57;3.87;;;;;;;;;;4956641;28;20251;-68
2021/11/01 06:04:22;;;;;;;10.93;4.23;;;;;;;;;;4972771;28;20222;-69
2021/11/01 06:07:00;;;;;;;14.07;3.80;;;;;;;;;;4958150;28;20225;-68
2021/11/01 06:14:38;;;;;;;8.17;2.93;;;;;;;;;;4949877;28;20228;-71
2021/11/01 06:17:05;;;;;;;10.13;3.20;;;;;;;;;;4939582;28;20214;-69
2021/11/01 06:19:30;;;;;;;11.27;2.90;;;;;;;;;;4919510;29;20222;-70
2021/11/01 06:21:56;;;;;;;10.20;3.10;;;;;;;;;;4935435;28;20226;-70
2021/11/01 06:27:11;;;;;;;9.77;2.83;;;;;;;;;;4963226;28;20215;-69
2021/11/01 06:56:30;;;;;;;11.17;2.57;;;;;;;;;;4952407;28;20234;-70
2021/11/01 07:15:42;;;;;;;9.33;2.53;;;;;;;;;;4943024;28;20252;-69
2021/11/01 07:18:21;;;;;;;8.40;2.50;;;;;;;;;;4955137;28;20249;-70
2021/11/01 08:30:04;;;;;;;8.33;2.10;;;;;;;;;;4974464;28;20224;-69
2021/11/01 09:04:41;;;;;;;7.67;2.03;;;;;;;;;;4937859;29;20802;-69
2021/11/01 09:20:41;;;;;;;6.03;1.90;;;;;;;;;;4973475;28;20229;-70
2021/11/01 09:28:49;;;;;;;5.30;1.83;;;;;;;;;;4982269;28;20222;-70
2021/11/01 09:36:55;;;;;;;7.00;2.00;;;;;;;;;;4950539;28;20226;-71
2021/11/01 09:42:07;;;;;;;5.50;1.93;;;;;;;;;;4953106;28;20726;-69
2021/11/01 09:44:35;;;;;;;6.93;1.93;;;;;;;;;;4952358;29;20767;-70
2021/11/01 09:47:01;;;;;;;6.37;2.00;;;;;;;;;;4937870;28;20600;-70
2021/11/01 09:49:27;;;;;;;7.90;1.93;;;;;;;;;;4972199;28;20329;-71
2021/11/01 09:52:07;;;;;;;7.50;1.90;;;;;;;;;;4972404;28;20222;-70
2021/11/01 09:54:33;;;;;;;9.53;1.73;;;;;;;;;;4936701;29;20214;-71
2021/11/01 09:57:20;;;;;;;7.60;1.70;;;;;;;;;;4952842;29;20246;-71
2021/11/01 09:59:46;;;;;;;6.10;1.70;;;;;;;;;;4938350;29;20250;-69
2021/11/01 10:02:17;;;;;;;6.13;1.90;;;;;;;;;;4952713;28;20245;-69
2021/11/01 10:04:44;;;;;;;4.93;1.50;;;;;;;;;;4972416;28;20865;-70
2021/11/01 10:07:33;;;;;;;5.97;1.60;;;;;;;;;;4928442;28;20273;-69
2021/11/01 10:10:07;;;;;;;4.97;2.10;;;;;;;;;;4953194;28;20718;-70
2021/11/01 10:12:35;;;;;;;7.97;3.17;;;;;;;;;;4923141;28;20831;-70
2021/11/01 10:18:13;;;;;;;7.83;2.53;;;;;;;;;;4972300;28;20237;-69
2021/11/01 10:20:47;;;;;;;6.63;2.23;;;;;;;;;;4973454;28;20233;-69
2021/11/01 10:23:23;;;;;;;6.23;1.37;;;;;;;;;;4940115;28;20325;-69
2021/11/01 10:25:49;;;;;;;6.70;1.67;;;;;;;;;;4971940;28;20241;-70
2021/11/01 10:28:15;;;;;;;3.67;1.50;;;;;;;;;;4955513;28;20214;-70
2021/11/01 10:30:43;;;;;;;6.37;1.50;;;;;;;;;;4973220;28;20713;-71
2021/11/01 10:33:12;;;;;;;7.37;1.83;;;;;;;;;;4972109;28;20218;-70
2021/11/01 10:35:40;;;;;;;3.90;1.37;;;;;;;;;;4955568;28;20218;-70
2021/11/01 10:38:12;;;;;;;5.43;1.47;;;;;;;;;;4944050;28;20238;-70
2021/11/01 11:31:37;;;;;;;3.70;1.60;;;;;;;;;;4978916;28;20223;-69
2021/11/01 11:39:24;;;;;;;3.40;1.60;;;;;;;;;;4947781;28;20234;-69
2021/11/01 11:50:51;;;;;;;2.80;1.10;;;;;;;;;;4905494;28;20241;-75
2021/11/01 11:53:20;;;;;;;5.70;1.73;;;;;;;;;;4953505;28;20230;-72
2021/11/01 11:56:03;;;;;;;3.17;1.20;;;;;;;;;;4923595;28;20304;-73
2021/11/01 11:58:39;;;;;;;3.53;1.30;;;;;;;;;;4958585;28;20600;-71
2021/11/01 12:01:27;;;;;;;4.53;1.10;;;;;;;;;;4925305;29;20324;-71
2021/11/01 12:04:00;;;;;;;3.40;1.00;;;;;;;;;;4938489;29;20317;-71
2021/11/01 12:06:52;;;;;;;6.03;1.87;;;;;;;;;;4956780;28;20285;-72
2021/11/01 12:09:21;;;;;;;4.40;1.20;;;;;;;;;;4965170;28;20707;-73
2021/11/01 12:17:20;;;;;;;4.77;1.03;;;;;;;;;;4958688;28;20229;-73
2021/11/01 12:19:46;;;;;;;4.67;1.00;;;;;;;;;;4957792;28;20230;-73
2021/11/01 12:22:28;;;;;;;3.27;1.13;;;;;;;;;;4941422;28;20261;-70
2021/11/01 12:24:57;;;;;;;4.07;1.50;;;;;;;;;;4942817;28;20228;-72
2021/11/01 12:27:27;;;;;;;3.77;1.33;;;;;;;;;;4957664;28;20222;-71
2021/11/01 12:29:53;;;;;;;5.67;1.50;;;;;;;;;;4958501;28;20221;-71
2021/11/01 12:32:21;;;;;;;3.67;1.33;;;;;;;;;;4957471;28;20233;-71
2021/11/01 12:35:01;;;;;;;3.07;1.47;;;;;;;;;;4939480;28;20222;-71
2021/11/01 12:37:34;;;;;;;4.33;1.13;;;;;;;;;;4931191;28;21641;-72
2021/11/01 12:40:36;;;;;;;4.43;1.20;;;;;;;;;;4969308;28;20607;-71
2021/11/01 12:59:56;;;;;;;3.23;0.90;;;;;;;;;;4942424;28;20230;-73
2021/11/01 13:02:26;;;;;;;6.33;1.40;;;;;;;;;;4941266;29;20579;-71
2021/11/01 13:04:52;;;;;;;4.23;0.80;;;;;;;;;;4954285;29;20622;-71
2021/11/01 13:13:37;;;;;;;3.53;1.30;;;;;;;;;;4922943;29;20226;-72
2021/11/01 13:18:30;;;;;;;2.43;1.03;;;;;;;;;;4959114;28;20226;-71
2021/11/01 13:21:02;;;;;;;4.43;1.00;;;;;;;;;;4957913;28;20366;-72
2021/11/01 13:23:32;;;;;;;3.00;1.00;;;;;;;;;;4941308;28;20254;-73
2021/11/01 13:26:18;;;;;;;5.07;1.37;;;;;;;;;;4973031;28;20224;-72
2021/11/01 13:29:00;;;;;;;4.63;1.10;;;;;;;;;;4959354;28;20233;-72
2021/11/01 13:36:47;;;;;;;3.17;1.00;;;;;;;;;;4952850;28;20254;-71
2021/11/01 13:39:22;;;;;;;4.37;1.20;;;;;;;;;;4947702;28;20269;-72
2021/11/01 13:41:50;;;;;;;3.20;1.10;;;;;;;;;;4967968;28;20218;-72
2021/11/01 13:44:19;;;;;;;4.37;1.10;;;;;;;;;;4952186;28;20289;-73
2021/11/01 13:46:58;;;;;;;3.57;1.03;;;;;;;;;;4955681;28;20224;-72
2021/11/01 13:49:31;;;;;;;2.40;0.90;;;;;;;;;;4940435;28;20848;-73
2021/11/01 13:53:03;;;;;;;5.50;1.20;;;;;;;;;;4947218;29;20265;-73
2021/11/01 13:55:10;;;;;;;3.03;1.03;;;;;;;;;;4925386;29;20692;-73
2021/11/01 13:57:56;;;;;;;5.23;1.00;;;;;;;;;;4950697;28;20226;-73
2021/11/01 14:00:46;;;;;;;2.53;1.00;;;;;;;;;;4939977;28;20636;-72
2021/11/01 14:03:16;;;;;;;2.53;1.00;;;;;;;;;;4924876;29;20594;-72
2021/11/01 14:28:11;;;;;;;3.70;1.40;;;;;;;;;;4954795;28;20696;-71
2021/11/01 15:10:52;;;;;;;6.07;1.20;;;;;;;;;;4952311;28;20249;-72
2021/11/01 15:16:09;;;;;;;2.53;0.87;;;;;;;;;;4956418;28;20229;-72
2021/11/01 15:18:52;;;;;;;3.93;1.33;;;;;;;;;;4961306;28;20229;-73
2021/11/01 15:24:18;;;;;;;3.57;1.00;;;;;;;;;;4960988;28;20578;-70
2021/11/01 15:27:16;;;;;;;3.60;0.87;;;;;;;;;;4953056;28;20237;-71
2021/11/01 16:18:06;;;;;;;5.70;1.57;;;;;;;;;;4955060;28;20570;-73
2021/11/01 16:20:32;;;;;;;5.17;1.30;;;;;;;;;;4929464;28;20284;-72
2021/11/01 16:23:22;;;;;;;3.63;2.10;;;;;;;;;;4950550;29;20219;-72
2021/11/01 16:25:56;;;;;;;4.60;1.33;;;;;;;;;;4963376;28;20214;-72
2021/11/01 16:28:23;;;;;;;5.17;1.30;;;;;;;;;;4952755;28;20222;-72
2021/11/01 16:31:06;;;;;;;5.30;1.50;;;;;;;;;;4940007;28;20207;-72
2021/11/01 16:33:34;;;;;;;5.07;1.60;;;;;;;;;;4952132;28;20313;-72
2021/11/01 16:36:08;;;;;;;4.80;1.33;;;;;;;;;;4936457;28;20211;-72
2021/11/01 16:38:50;;;;;;;5.83;1.83;;;;;;;;;;4916295;28;20242;-73
2021/11/01 16:41:18;;;;;;;8.90;2.10;;;;;;;;;;4942786;28;20222;-72
2021/11/01 16:43:48;;;;;;;9.57;1.80;;;;;;;;;;4922332;28;20230;-72
2021/11/01 16:46:13;;;;;;;10.50;2.20;;;;;;;;;;4935302;28;20286;-72
2021/11/01 16:48:41;;;;;;;6.17;1.80;;;;;;;;;;4936726;29;20222;-72
2021/11/01 16:51:09;;;;;;;5.37;1.30;;;;;;;;;;4945590;28;20697;-72
2021/11/01 16:53:40;;;;;;;3.93;1.30;;;;;;;;;;4929420;29;20289;-72
2021/11/01 16:56:27;;;;;;;5.70;1.13;;;;;;;;;;4954964;28;20219;-71
2021/11/01 16:58:55;;;;;;;5.07;1.20;;;;;;;;;;4941105;29;20313;-71
2021/11/01 17:01:22;;;;;;;4.37;1.20;;;;;;;;;;4941568;28;20222;-73
2021/11/01 17:03:53;;;;;;;4.67;1.43;;;;;;;;;;4941108;28;20722;-72
2021/11/01 17:06:32;;;;;;;4.80;1.40;;;;;;;;;;4956029;28;20266;-72
2021/11/01 17:22:45;;;;;;;10.60;7.50;;;;;;;;;;4930764;29;20721;-72
2021/11/01 17:25:29;;;;;;;12.87;7.40;;;;;;;;;;4962346;28;20681;-72
2021/11/01 17:36:37;;;;;;;8.33;4.37;;;;;;;;;;4931891;28;20222;-72
2021/11/01 17:39:07;;;;;;;5.57;2.70;;;;;;;;;;4923906;29;20282;-71
2021/11/01 18:40:06;;;;;;;5.93;3.50;;;;;;;;;;4951024;28;20696;-71
2021/11/01 18:51:04;;;;;;;7.53;5.07;;;;;;;;;;4920945;28;20256;-72
2021/11/01 18:53:43;;;;;;;6.67;4.30;;;;;;;;;;4951050;28;20226;-72
2021/11/01 18:56:11;;;;;;;6.60;5.00;;;;;;;;;;4951782;28;20692;-71
2021/11/01 18:58:39;;;;;;;7.13;3.87;;;;;;;;;;4924268;29;20227;-72
2021/11/01 19:01:16;;;;;;;6.53;3.50;;;;;;;;;;4947757;28;20221;-72
2021/11/01 19:03:46;;;;;;;3.80;2.53;;;;;;;;;;4930028;29;20230;-73
2021/11/01 19:06:22;;;;;;;4.27;3.07;;;;;;;;;;4960103;28;20218;-73
2021/11/01 20:07:23;;;;;;;4.67;3.53;;;;;;;;;;4917784;28;20226;-73
2021/11/01 20:16:21;;;;;;;7.27;3.63;;;;;;;;;;4923880;28;20596;-72
2021/11/01 21:24:54;;;;;;;6.03;3.50;;;;;;;;;;4950821;28;20708;-70
2021/11/01 21:27:22;;;;;;;5.70;3.20;;;;;;;;;;4938774;28;20226;-70
2021/11/01 21:29:50;;;;;;;5.37;3.00;;;;;;;;;;4946550;28;20222;-70
2021/11/01 21:32:18;;;;;;;4.93;2.93;;;;;;;;;;4921053;29;20238;-70
2021/11/01 21:35:00;;;;;;;6.03;3.00;;;;;;;;;;4931390;28;20233;-70
2021/11/01 21:37:26;;;;;;;4.07;2.90;;;;;;;;;;4962950;28;20222;-71
2021/11/01 21:39:53;;;;;;;6.33;3.27;;;;;;;;;;4959784;28;20218;-70
2021/11/01 21:42:18;;;;;;;6.00;3.13;;;;;;;;;;4939634;28;20252;-70
2021/11/01 21:44:46;;;;;;;5.80;3.03;;;;;;;;;;4955746;28;20255;-71
2021/11/01 21:47:14;;;;;;;6.57;3.50;;;;;;;;;;4956235;28;20225;-70
2021/11/01 21:49:40;;;;;;;7.37;3.33;;;;;;;;;;4939940;28;20281;-70
2021/11/01 21:52:12;;;;;;;5.50;3.20;;;;;;;;;;4924252;28;20213;-70
2021/11/01 21:54:51;;;;;;;4.27;3.30;;;;;;;;;;4949145;29;20310;-70
2021/11/01 21:57:24;;;;;;;7.83;3.20;;;;;;;;;;4937900;28;20237;-69
2021/11/01 22:21:59;;;;;;;5.17;2.97;;;;;;;;;;4958243;28;20226;-70
2021/11/01 22:33:20;;;;;;;6.93;3.33;;;;;;;;;;4945284;28;20250;-70
2021/11/01 22:41:26;;;;;;;7.50;3.30;;;;;;;;;;4963116;28;20233;-70
2021/11/01 22:57:10;;;;;;;6.57;3.70;;;;;;;;;;4953623;28;20229;-70
2021/11/01 22:59:37;;;;;;;5.43;3.50;;;;;;;;;;4920230;29;20227;-71
2021/11/01 23:02:06;;;;;;;5.73;3.17;;;;;;;;;;4968677;28;20663;-72
2021/11/01 23:04:53;;;;;;;5.07;2.63;;;;;;;;;;4954940;28;20237;-69
2021/11/01 23:32:25;;;;;;;5.57;3.40;;;;;;;;;;4966456;28;20590;-70
2021/11/01 23:34:51;;;;;;;7.47;3.07;;;;;;;;;;4939239;28;20356;-71
2021/11/01 23:37:19;;;;;;;5.77;3.40;;;;;;;;;;4964664;28;20226;-70
2021/11/01 23:39:44;;;;;;;6.93;3.40;;;;;;;;;;4965546;28;20222;-71
2021/11/01 23:42:10;;;;;;;7.50;3.57;;;;;;;;;;4928216;29;20230;-70
2021/11/01 23:44:35;;;;;;;8.83;3.30;;;;;;;;;;4918663;29;20245;-71
2021/11/01 23:47:06;;;;;;;5.13;3.20;;;;;;;;;;4963176;28;20635;-70
2021/11/01 23:49:31;;;;;;;5.77;3.40;;;;;;;;;;4922298;28;20222;-70
2021/11/01 23:52:37;;;;;;;5.87;3.23;;;;;;;;;;4962600;28;20765;-70
2021/11/01 23:54:51;;;;;;;4.70;2.83;;;;;;;;;;4957369;28;20226;-70
2021/11/01 23:57:21;;;;;;;7.03;3.50;;;;;;;;;;4962787;28;20222;-70
2021/11/01 23:59:49;;;;;;;6.83;3.20;;;;;;;;;;4939141;29;20222;-70
